CheckWX is a tool to help pilots better visualize weather data.  It is not intended as a substitute for an official pre-flight weather briefing.

03:01:41 UTC

KSBN TAF
South Bend International Airport
South Bend, Indiana, USA
KSBN 232331Z 2400/2424 35008KT P6SM FEW060 FM240130 03004KT P6SM SKC FM241500 07007KT P6SM FEW060

Aug-24@
00:00 UTC

Aug-24 @ 00:00 UTC

Aug-24@
01:30 UTC

Aug-24 @ 01:30 UTC

KSBN 232331Z 2400/2424 35008KT P6SM FEW060

Expired

Wind
  • 350° at 8 KTS
Cloud Levels
  • Few at 6,000' AGL

Aug-24@
01:30 UTC

Aug-24 @ 01:30 UTC

Aug-24@
15:00 UTC

Aug-24 @ 15:00 UTC

FM240130 03004KT P6SM SKC

From

From Standard forecast or significant change

Wind
  • 030° at 4 KTS
Cloud Levels
  • Clear skies

Aug-24@
15:00 UTC

Aug-24 @ 15:00 UTC

Aug-25@
00:00 UTC

Aug-25 @ 00:00 UTC

FM241500 07007KT P6SM FEW060

From

From Standard forecast or significant change

Wind
  • 070° at 7 KTS
Cloud Levels
  • Few at 6,000' AGL